HEBA/HBE METAR and TAF weather

Enter ICAO airport designator
Station Type Date Time Source
HEBA METAR 2018/10/22 16:00 UTC NOAA

HEBA 221600Z 36006KT CAVOK 27/18 Q1009 NOSIG


Station Type Date Time Source
HEBA Decoded METAR 2018/10/22 16:00 UTC NOAA

Alexandria Borg El Arab, Egypt (HEBA) 31-31N 030-10E
Oct 22, 2018 - 12:00 PM EDT / 2018.10.22 1600 UTC
Wind: from the N (360 degrees) at 7 MPH (6 KT):0
Visibility: greater than 7 mile(s):0
Temperature: 80 F (27 C)
Dew Point: 64 F (18 C)
Relative Humidity: 57%
Pressure (altimeter): 29.80 in. Hg (1009 hPa)
ob: HEBA 221600Z 36006KT CAVOK 27/18 Q1009 NOSIG
cycle: 16

Station Type Date Time Source
HEBA TAF 2018/10/22 18:24 UTC NOAA

TAF HEBA 221700Z 2218/2324 36009KT 9999 FEW020
TEMPO 2300/2306 VRB03KT 3000 BR NSC


Example: see airport list